sensor_id;sensor_type;location;lat;lon;timestamp;pressure;altitude;pressure_sealevel;temperature;humidity
28167;BME280;15455;53.376;-6.262;2024-03-06T00:01:46;101489.91;;;0.62;100.00
28167;BME280;15455;53.376;-6.262;2024-03-06T00:04:33;101488.53;;;0.68;100.00
28167;BME280;15455;53.376;-6.262;2024-03-06T00:07:18;101489.47;;;0.71;100.00
28167;BME280;15455;53.376;-6.262;2024-03-06T00:10:04;101493.25;;;0.77;100.00
28167;BME280;15455;53.376;-6.262;2024-03-06T00:12:53;101498.81;;;0.86;100.00
28167;BME280;15455;53.376;-6.262;2024-03-06T00:15:39;101495.53;;;0.89;100.00
28167;BME280;15455;53.376;-6.262;2024-03-06T00:18:24;101496.31;;;0.88;100.00
28167;BME280;15455;53.376;-6.262;2024-03-06T00:21:09;101500.38;;;1.01;100.00
28167;BME280;15455;53.376;-6.262;2024-03-06T00:23:55;101501.50;;;1.06;100.00
28167;BME280;15455;53.376;-6.262;2024-03-06T00:26:41;101508.84;;;1.16;100.00
28167;BME280;15455;53.376;-6.262;2024-03-06T00:29:28;101508.09;;;1.19;100.00
28167;BME280;15455;53.376;-6.262;2024-03-06T00:32:17;101510.50;;;1.34;100.00
28167;BME280;15455;53.376;-6.262;2024-03-06T00:35:03;101507.50;;;1.43;100.00
28167;BME280;15455;53.376;-6.262;2024-03-06T00:37:51;101517.13;;;1.47;100.00
28167;BME280;15455;53.376;-6.262;2024-03-06T00:40:37;101508.22;;;1.40;100.00
28167;BME280;15455;53.376;-6.262;2024-03-06T00:43:22;101506.19;;;1.33;100.00
28167;BME280;15455;53.376;-6.262;2024-03-06T00:46:08;101504.03;;;1.24;100.00
28167;BME280;15455;53.376;-6.262;2024-03-06T00:48:54;101500.22;;;1.34;100.00
28167;BME280;15455;53.376;-6.262;2024-03-06T00:51:39;101507.34;;;1.39;100.00
28167;BME280;15455;53.376;-6.262;2024-03-06T00:54:33;101489.28;;;1.38;100.00
28167;BME280;15455;53.376;-6.262;2024-03-06T00:57:18;101490.75;;;1.33;100.00
28167;BME280;15455;53.376;-6.262;2024-03-06T01:00:04;101492.75;;;1.20;100.00
28167;BME280;15455;53.376;-6.262;2024-03-06T01:02:56;101501.84;;;1.14;100.00
28167;BME280;15455;53.376;-6.262;2024-03-06T01:05:42;101497.44;;;1.11;100.00
28167;BME280;15455;53.376;-6.262;2024-03-06T01:08:27;101496.63;;;1.12;100.00
28167;BME280;15455;53.376;-6.262;2024-03-06T01:11:13;101504.66;;;1.00;100.00
28167;BME280;15455;53.376;-6.262;2024-03-06T01:14:01;101505.59;;;0.84;100.00
28167;BME280;15455;53.376;-6.262;2024-03-06T01:16:48;101507.50;;;0.89;100.00
28167;BME280;15455;53.376;-6.262;2024-03-06T01:19:34;101500.44;;;0.84;100.00
28167;BME280;15455;53.376;-6.262;2024-03-06T01:22:20;101494.38;;;0.66;100.00
28167;BME280;15455;53.376;-6.262;2024-03-06T01:25:05;101490.72;;;0.61;100.00
28167;BME280;15455;53.376;-6.262;2024-03-06T01:27:52;101483.59;;;0.55;100.00
28167;BME280;15455;53.376;-6.262;2024-03-06T01:30:38;101485.25;;;0.55;100.00
28167;BME280;15455;53.376;-6.262;2024-03-06T01:33:23;101496.59;;;0.58;100.00
28167;BME280;15455;53.376;-6.262;2024-03-06T01:36:09;101493.13;;;0.58;100.00
28167;BME280;15455;53.376;-6.262;2024-03-06T01:38:55;101491.94;;;0.51;100.00
28167;BME280;15455;53.376;-6.262;2024-03-06T01:41:47;101489.06;;;0.45;100.00
28167;BME280;15455;53.376;-6.262;2024-03-06T01:44:33;101493.41;;;0.29;100.00
28167;BME280;15455;53.376;-6.262;2024-03-06T01:47:19;101497.56;;;0.27;100.00
28167;BME280;15455;53.376;-6.262;2024-03-06T01:50:05;101499.00;;;0.39;100.00
28167;BME280;15455;53.376;-6.262;2024-03-06T01:52:54;101502.06;;;0.31;100.00
28167;BME280;15455;53.376;-6.262;2024-03-06T01:55:40;101497.41;;;0.24;100.00
28167;BME280;15455;53.376;-6.262;2024-03-06T01:58:26;101503.19;;;0.20;100.00
28167;BME280;15455;53.376;-6.262;2024-03-06T02:01:14;101494.59;;;0.36;100.00
28167;BME280;15455;53.376;-6.262;2024-03-06T02:04:01;101499.44;;;0.64;100.00
28167;BME280;15455;53.376;-6.262;2024-03-06T02:06:47;101496.56;;;0.93;100.00
28167;BME280;15455;53.376;-6.262;2024-03-06T02:09:33;101493.19;;;1.12;100.00
28167;BME280;15455;53.376;-6.262;2024-03-06T02:12:19;101504.50;;;1.33;100.00
28167;BME280;15455;53.376;-6.262;2024-03-06T02:15:05;101501.22;;;1.55;100.00
28167;BME280;15455;53.376;-6.262;2024-03-06T02:17:51;101495.69;;;1.66;100.00
28167;BME280;15455;53.376;-6.262;2024-03-06T02:20:39;101505.75;;;1.79;100.00
28167;BME280;15455;53.376;-6.262;2024-03-06T02:23:28;101501.63;;;1.83;100.00
28167;BME280;15455;53.376;-6.262;2024-03-06T02:26:13;101501.28;;;1.95;100.00
28167;BME280;15455;53.376;-6.262;2024-03-06T02:28:58;101503.94;;;1.96;100.00
28167;BME280;15455;53.376;-6.262;2024-03-06T02:31:44;101501.16;;;1.91;100.00
28167;BME280;15455;53.376;-6.262;2024-03-06T02:34:30;101497.06;;;1.77;100.00
28167;BME280;15455;53.376;-6.262;2024-03-06T02:37:15;101496.47;;;1.83;100.00
28167;BME280;15455;53.376;-6.262;2024-03-06T02:40:02;101494.03;;;1.86;100.00
28167;BME280;15455;53.376;-6.262;2024-03-06T02:42:47;101488.56;;;1.78;100.00
28167;BME280;15455;53.376;-6.262;2024-03-06T02:45:33;101498.34;;;1.67;100.00
28167;BME280;15455;53.376;-6.262;2024-03-06T02:48:19;101486.78;;;1.58;100.00
28167;BME280;15455;53.376;-6.262;2024-03-06T02:51:04;101485.19;;;1.61;100.00
28167;BME280;15455;53.376;-6.262;2024-03-06T02:53:50;101490.34;;;1.61;100.00
28167;BME280;15455;53.376;-6.262;2024-03-06T02:56:38;101486.31;;;1.66;100.00
28167;BME280;15455;53.376;-6.262;2024-03-06T02:59:24;101484.53;;;1.65;100.00
28167;BME280;15455;53.376;-6.262;2024-03-06T03:02:09;101481.75;;;1.61;100.00
28167;BME280;15455;53.376;-6.262;2024-03-06T03:04:55;101486.97;;;1.62;100.00
28167;BME280;15455;53.376;-6.262;2024-03-06T03:07:41;101483.94;;;1.71;100.00
28167;BME280;15455;53.376;-6.262;2024-03-06T03:10:29;101485.31;;;1.82;100.00
28167;BME280;15455;53.376;-6.262;2024-03-06T03:13:15;101476.81;;;1.85;100.00
28167;BME280;15455;53.376;-6.262;2024-03-06T03:16:00;101484.91;;;1.93;100.00
28167;BME280;15455;53.376;-6.262;2024-03-06T03:18:48;101485.78;;;1.93;100.00
28167;BME280;15455;53.376;-6.262;2024-03-06T03:21:34;101478.84;;;1.92;100.00
28167;BME280;15455;53.376;-6.262;2024-03-06T03:24:19;101478.00;;;1.91;100.00
28167;BME280;15455;53.376;-6.262;2024-03-06T03:27:06;101477.59;;;1.82;100.00
28167;BME280;15455;53.376;-6.262;2024-03-06T03:29:53;101470.53;;;1.78;100.00
28167;BME280;15455;53.376;-6.262;2024-03-06T03:32:38;101471.66;;;1.85;100.00
28167;BME280;15455;53.376;-6.262;2024-03-06T03:35:24;101476.44;;;1.95;100.00
28167;BME280;15455;53.376;-6.262;2024-03-06T03:38:10;101481.31;;;2.08;100.00
28167;BME280;15455;53.376;-6.262;2024-03-06T03:40:57;101476.28;;;2.12;100.00
28167;BME280;15455;53.376;-6.262;2024-03-06T03:43:42;101474.81;;;2.17;100.00
28167;BME280;15455;53.376;-6.262;2024-03-06T03:46:28;101480.03;;;2.18;100.00
28167;BME280;15455;53.376;-6.262;2024-03-06T03:49:13;101479.75;;;2.12;100.00
28167;BME280;15455;53.376;-6.262;2024-03-06T03:51:59;101482.59;;;1.99;100.00
28167;BME280;15455;53.376;-6.262;2024-03-06T03:54:45;101482.94;;;1.87;100.00
28167;BME280;15455;53.376;-6.262;2024-03-06T03:57:30;101485.72;;;1.91;100.00
28167;BME280;15455;53.376;-6.262;2024-03-06T04:00:16;101479.81;;;1.94;100.00
28167;BME280;15455;53.376;-6.262;2024-03-06T04:03:03;101482.94;;;1.87;100.00
28167;BME280;15455;53.376;-6.262;2024-03-06T04:05:49;101480.28;;;1.85;100.00
28167;BME280;15455;53.376;-6.262;2024-03-06T04:08:35;101475.81;;;1.81;100.00
28167;BME280;15455;53.376;-6.262;2024-03-06T04:11:20;101465.94;;;1.71;100.00
28167;BME280;15455;53.376;-6.262;2024-03-06T04:14:07;101462.63;;;1.73;100.00
28167;BME280;15455;53.376;-6.262;2024-03-06T04:16:53;101459.56;;;1.82;100.00
28167;BME280;15455;53.376;-6.262;2024-03-06T04:19:39;101467.56;;;1.88;100.00
28167;BME280;15455;53.376;-6.262;2024-03-06T04:22:25;101469.78;;;2.00;100.00
28167;BME280;15455;53.376;-6.262;2024-03-06T04:25:11;101467.63;;;2.10;100.00
28167;BME280;15455;53.376;-6.262;2024-03-06T04:27:57;101470.59;;;2.19;100.00
28167;BME280;15455;53.376;-6.262;2024-03-06T04:30:42;101477.09;;;2.30;100.00
28167;BME280;15455;53.376;-6.262;2024-03-06T04:33:28;101480.25;;;2.44;100.00
28167;BME280;15455;53.376;-6.262;2024-03-06T04:36:13;101487.22;;;2.47;100.00
28167;BME280;15455;53.376;-6.262;2024-03-06T04:38:59;101486.97;;;2.40;100.00
28167;BME280;15455;53.376;-6.262;2024-03-06T04:41:44;101485.03;;;2.35;100.00
28167;BME280;15455;53.376;-6.262;2024-03-06T04:44:33;101485.69;;;2.31;100.00
28167;BME280;15455;53.376;-6.262;2024-03-06T04:47:19;101483.06;;;2.29;100.00
28167;BME280;15455;53.376;-6.262;2024-03-06T04:50:08;101484.41;;;2.40;100.00
28167;BME280;15455;53.376;-6.262;2024-03-06T04:52:56;101485.00;;;2.54;100.00
28167;BME280;15455;53.376;-6.262;2024-03-06T04:55:41;101491.75;;;2.72;100.00
28167;BME280;15455;53.376;-6.262;2024-03-06T04:58:27;101496.63;;;2.87;100.00
28167;BME280;15455;53.376;-6.262;2024-03-06T05:01:13;101498.88;;;3.00;100.00
28167;BME280;15455;53.376;-6.262;2024-03-06T05:03:58;101496.44;;;3.03;100.00
28167;BME280;15455;53.376;-6.262;2024-03-06T05:07:01;101491.47;;;3.08;100.00
28167;BME280;15455;53.376;-6.262;2024-03-06T05:10:05;101497.91;;;3.19;100.00
28167;BME280;15455;53.376;-6.262;2024-03-06T05:13:10;101496.75;;;3.34;100.00
28167;BME280;15455;53.376;-6.262;2024-03-06T05:16:13;101492.09;;;3.46;100.00
28167;BME280;15455;53.376;-6.262;2024-03-06T05:19:16;101495.19;;;3.37;100.00
28167;BME280;15455;53.376;-6.262;2024-03-06T05:22:19;101486.53;;;3.35;100.00
28167;BME280;15455;53.376;-6.262;2024-03-06T05:25:21;101493.44;;;3.36;100.00
28167;BME280;15455;53.376;-6.262;2024-03-06T05:28:24;101497.66;;;3.34;100.00
28167;BME280;15455;53.376;-6.262;2024-03-06T05:31:27;101501.63;;;3.26;100.00
28167;BME280;15455;53.376;-6.262;2024-03-06T05:34:30;101504.28;;;3.27;100.00
28167;BME280;15455;53.376;-6.262;2024-03-06T05:37:32;101500.00;;;3.28;100.00
28167;BME280;15455;53.376;-6.262;2024-03-06T05:40:36;101495.22;;;3.16;100.00
28167;BME280;15455;53.376;-6.262;2024-03-06T05:43:42;101489.72;;;3.07;100.00
28167;BME280;15455;53.376;-6.262;2024-03-06T05:46:45;101491.38;;;3.05;100.00
28167;BME280;15455;53.376;-6.262;2024-03-06T05:49:47;101492.97;;;3.03;100.00
28167;BME280;15455;53.376;-6.262;2024-03-06T05:52:51;101492.88;;;3.00;100.00
28167;BME280;15455;53.376;-6.262;2024-03-06T05:55:53;101493.50;;;2.94;100.00
28167;BME280;15455;53.376;-6.262;2024-03-06T05:58:57;101488.63;;;3.02;100.00
28167;BME280;15455;53.376;-6.262;2024-03-06T06:01:42;101505.94;;;3.04;100.00
28167;BME280;15455;53.376;-6.262;2024-03-06T06:04:29;101506.69;;;3.02;100.00
28167;BME280;15455;53.376;-6.262;2024-03-06T06:07:18;101517.91;;;3.02;100.00
28167;BME280;15455;53.376;-6.262;2024-03-06T06:10:04;101513.66;;;3.04;100.00
28167;BME280;15455;53.376;-6.262;2024-03-06T06:12:53;101511.09;;;3.04;100.00
28167;BME280;15455;53.376;-6.262;2024-03-06T06:15:39;101510.69;;;3.16;100.00
28167;BME280;15455;53.376;-6.262;2024-03-06T06:18:24;101524.84;;;3.26;100.00
28167;BME280;15455;53.376;-6.262;2024-03-06T06:21:10;101529.84;;;3.21;100.00
28167;BME280;15455;53.376;-6.262;2024-03-06T06:23:55;101521.53;;;3.07;100.00
28167;BME280;15455;53.376;-6.262;2024-03-06T06:26:41;101536.63;;;2.98;100.00
28167;BME280;15455;53.376;-6.262;2024-03-06T06:29:27;101521.66;;;2.89;100.00
28167;BME280;15455;53.376;-6.262;2024-03-06T06:32:14;101516.16;;;2.82;100.00
28167;BME280;15455;53.376;-6.262;2024-03-06T06:34:59;101524.56;;;2.76;100.00
28167;BME280;15455;53.376;-6.262;2024-03-06T06:37:45;101518.38;;;2.72;100.00
28167;BME280;15455;53.376;-6.262;2024-03-06T06:40:31;101522.34;;;2.85;100.00
28167;BME280;15455;53.376;-6.262;2024-03-06T06:43:16;101522.44;;;3.08;100.00
28167;BME280;15455;53.376;-6.262;2024-03-06T06:46:02;101531.72;;;3.25;100.00
28167;BME280;15455;53.376;-6.262;2024-03-06T06:48:50;101533.78;;;3.34;100.00
28167;BME280;15455;53.376;-6.262;2024-03-06T06:51:36;101530.06;;;3.27;100.00
28167;BME280;15455;53.376;-6.262;2024-03-06T06:54:22;101519.19;;;3.35;100.00
28167;BME280;15455;53.376;-6.262;2024-03-06T06:57:08;101533.03;;;3.37;100.00
28167;BME280;15455;53.376;-6.262;2024-03-06T06:59:53;101531.16;;;3.33;100.00
28167;BME280;15455;53.376;-6.262;2024-03-06T07:02:40;101533.72;;;3.33;100.00
28167;BME280;15455;53.376;-6.262;2024-03-06T07:05:26;101530.88;;;3.26;100.00
28167;BME280;15455;53.376;-6.262;2024-03-06T07:08:12;101532.47;;;3.23;100.00
28167;BME280;15455;53.376;-6.262;2024-03-06T07:10:58;101530.75;;;3.23;100.00
28167;BME280;15455;53.376;-6.262;2024-03-06T07:13:43;101530.97;;;3.28;100.00
28167;BME280;15455;53.376;-6.262;2024-03-06T07:16:29;101527.72;;;3.34;100.00
28167;BME280;15455;53.376;-6.262;2024-03-06T07:19:14;101531.91;;;3.30;100.00
28167;BME280;15455;53.376;-6.262;2024-03-06T07:22:00;101532.59;;;3.26;100.00
28167;BME280;15455;53.376;-6.262;2024-03-06T07:24:45;101535.81;;;3.20;100.00
28167;BME280;15455;53.376;-6.262;2024-03-06T07:27:31;101534.25;;;3.24;100.00
28167;BME280;15455;53.376;-6.262;2024-03-06T07:30:17;101538.78;;;3.29;100.00
28167;BME280;15455;53.376;-6.262;2024-03-06T07:33:03;101534.84;;;3.39;100.00
28167;BME280;15455;53.376;-6.262;2024-03-06T07:35:49;101530.91;;;3.49;100.00
28167;BME280;15455;53.376;-6.262;2024-03-06T07:38:35;101538.88;;;3.55;100.00
28167;BME280;15455;53.376;-6.262;2024-03-06T07:41:21;101539.84;;;3.57;100.00
28167;BME280;15455;53.376;-6.262;2024-03-06T07:44:07;101527.13;;;3.62;100.00
28167;BME280;15455;53.376;-6.262;2024-03-06T07:46:54;101528.13;;;3.65;100.00
28167;BME280;15455;53.376;-6.262;2024-03-06T07:49:40;101527.75;;;3.79;100.00
28167;BME280;15455;53.376;-6.262;2024-03-06T07:52:25;101521.13;;;3.86;100.00
28167;BME280;15455;53.376;-6.262;2024-03-06T07:55:11;101525.81;;;3.96;100.00
28167;BME280;15455;53.376;-6.262;2024-03-06T07:57:56;101516.53;;;4.01;100.00
28167;BME280;15455;53.376;-6.262;2024-03-06T08:00:41;101519.41;;;4.09;100.00
28167;BME280;15455;53.376;-6.262;2024-03-06T08:03:27;101521.44;;;4.17;100.00
28167;BME280;15455;53.376;-6.262;2024-03-06T08:06:13;101519.13;;;4.25;100.00
28167;BME280;15455;53.376;-6.262;2024-03-06T08:09:00;101520.34;;;4.35;100.00
28167;BME280;15455;53.376;-6.262;2024-03-06T08:11:47;101520.44;;;4.38;100.00
28167;BME280;15455;53.376;-6.262;2024-03-06T08:14:34;101516.28;;;4.43;100.00
28167;BME280;15455;53.376;-6.262;2024-03-06T08:17:19;101519.88;;;4.47;100.00
28167;BME280;15455;53.376;-6.262;2024-03-06T08:20:06;101518.41;;;4.54;100.00
28167;BME280;15455;53.376;-6.262;2024-03-06T08:22:53;101518.59;;;4.60;100.00
28167;BME280;15455;53.376;-6.262;2024-03-06T08:25:38;101521.28;;;4.63;100.00
28167;BME280;15455;53.376;-6.262;2024-03-06T08:28:24;101519.81;;;4.69;100.00
28167;BME280;15455;53.376;-6.262;2024-03-06T08:31:10;101524.38;;;4.77;100.00
28167;BME280;15455;53.376;-6.262;2024-03-06T08:33:56;101529.63;;;4.80;100.00
28167;BME280;15455;53.376;-6.262;2024-03-06T08:36:42;101530.78;;;4.90;100.00
28167;BME280;15455;53.376;-6.262;2024-03-06T08:39:28;101518.19;;;4.99;100.00
28167;BME280;15455;53.376;-6.262;2024-03-06T08:42:14;101515.84;;;5.07;100.00
28167;BME280;15455;53.376;-6.262;2024-03-06T08:45:04;101511.84;;;5.16;100.00
28167;BME280;15455;53.376;-6.262;2024-03-06T08:47:50;101508.47;;;5.19;100.00
28167;BME280;15455;53.376;-6.262;2024-03-06T08:50:35;101513.81;;;5.24;100.00
28167;BME280;15455;53.376;-6.262;2024-03-06T08:53:21;101511.41;;;5.30;100.00
28167;BME280;15455;53.376;-6.262;2024-03-06T08:56:07;101508.16;;;5.37;100.00
28167;BME280;15455;53.376;-6.262;2024-03-06T08:58:53;101506.75;;;5.47;100.00
28167;BME280;15455;53.376;-6.262;2024-03-06T09:01:38;101510.50;;;5.56;100.00
28167;BME280;15455;53.376;-6.262;2024-03-06T09:04:23;101512.53;;;5.67;100.00
28167;BME280;15455;53.376;-6.262;2024-03-06T09:07:09;101507.63;;;5.76;100.00
28167;BME280;15455;53.376;-6.262;2024-03-06T09:09:55;101508.69;;;5.83;100.00
28167;BME280;15455;53.376;-6.262;2024-03-06T09:12:42;101508.91;;;5.90;100.00
28167;BME280;15455;53.376;-6.262;2024-03-06T09:15:27;101486.59;;;5.96;100.00
28167;BME280;15455;53.376;-6.262;2024-03-06T09:18:13;101485.13;;;6.02;100.00
28167;BME280;15455;53.376;-6.262;2024-03-06T09:21:00;101491.41;;;6.12;100.00
28167;BME280;15455;53.376;-6.262;2024-03-06T09:23:48;101485.63;;;6.22;100.00
28167;BME280;15455;53.376;-6.262;2024-03-06T09:26:36;101484.22;;;6.34;100.00
28167;BME280;15455;53.376;-6.262;2024-03-06T09:29:22;101488.81;;;6.44;100.00
28167;BME280;15455;53.376;-6.262;2024-03-06T09:32:08;101493.28;;;6.50;100.00
28167;BME280;15455;53.376;-6.262;2024-03-06T09:34:54;101483.19;;;6.60;100.00
28167;BME280;15455;53.376;-6.262;2024-03-06T09:37:39;101496.56;;;6.76;100.00
28167;BME280;15455;53.376;-6.262;2024-03-06T09:40:25;101485.53;;;6.85;100.00
28167;BME280;15455;53.376;-6.262;2024-03-06T09:43:11;101486.66;;;6.96;100.00
28167;BME280;15455;53.376;-6.262;2024-03-06T09:45:57;101482.63;;;7.09;100.00
28167;BME280;15455;53.376;-6.262;2024-03-06T09:48:46;101476.13;;;7.26;100.00
28167;BME280;15455;53.376;-6.262;2024-03-06T09:51:32;101468.63;;;7.39;100.00
28167;BME280;15455;53.376;-6.262;2024-03-06T09:54:19;101460.41;;;7.58;100.00
28167;BME280;15455;53.376;-6.262;2024-03-06T09:57:05;101462.50;;;7.76;100.00
28167;BME280;15455;53.376;-6.262;2024-03-06T09:59:51;101451.41;;;7.85;100.00
28167;BME280;15455;53.376;-6.262;2024-03-06T10:02:38;101447.13;;;7.87;100.00
28167;BME280;15455;53.376;-6.262;2024-03-06T10:05:24;101447.22;;;7.92;100.00
28167;BME280;15455;53.376;-6.262;2024-03-06T10:08:10;101446.38;;;7.94;100.00
28167;BME280;15455;53.376;-6.262;2024-03-06T10:10:57;101442.09;;;7.96;100.00
28167;BME280;15455;53.376;-6.262;2024-03-06T10:13:42;101442.25;;;8.04;100.00
28167;BME280;15455;53.376;-6.262;2024-03-06T10:16:28;101443.25;;;8.11;100.00
28167;BME280;15455;53.376;-6.262;2024-03-06T10:19:17;101433.94;;;8.24;100.00
28167;BME280;15455;53.376;-6.262;2024-03-06T10:22:06;101439.31;;;8.34;100.00
28167;BME280;15455;53.376;-6.262;2024-03-06T10:24:56;101453.44;;;8.46;100.00
28167;BME280;15455;53.376;-6.262;2024-03-06T10:27:42;101449.34;;;8.60;100.00
28167;BME280;15455;53.376;-6.262;2024-03-06T10:30:27;101442.66;;;8.75;100.00
28167;BME280;15455;53.376;-6.262;2024-03-06T10:33:14;101448.16;;;8.95;100.00
28167;BME280;15455;53.376;-6.262;2024-03-06T10:36:00;101445.78;;;9.07;100.00
28167;BME280;15455;53.376;-6.262;2024-03-06T10:38:50;101450.25;;;9.16;100.00
28167;BME280;15455;53.376;-6.262;2024-03-06T10:41:38;101436.50;;;9.26;100.00
28167;BME280;15455;53.376;-6.262;2024-03-06T10:44:26;101434.78;;;9.28;100.00
28167;BME280;15455;53.376;-6.262;2024-03-06T10:47:12;101422.47;;;9.16;100.00
28167;BME280;15455;53.376;-6.262;2024-03-06T10:50:00;101431.00;;;9.06;100.00
28167;BME280;15455;53.376;-6.262;2024-03-06T10:52:49;101426.53;;;8.97;100.00
28167;BME280;15455;53.376;-6.262;2024-03-06T10:55:37;101439.41;;;8.90;100.00
28167;BME280;15455;53.376;-6.262;2024-03-06T10:58:23;101444.53;;;8.85;100.00
28167;BME280;15455;53.376;-6.262;2024-03-06T11:01:10;101455.88;;;8.87;100.00
28167;BME280;15455;53.376;-6.262;2024-03-06T11:04:00;101455.13;;;8.96;100.00
28167;BME280;15455;53.376;-6.262;2024-03-06T11:06:46;101453.59;;;9.07;100.00
28167;BME280;15455;53.376;-6.262;2024-03-06T11:09:37;101451.13;;;9.19;100.00
28167;BME280;15455;53.376;-6.262;2024-03-06T11:12:33;101456.56;;;9.35;100.00
28167;BME280;15455;53.376;-6.262;2024-03-06T11:15:19;101446.28;;;9.44;100.00
28167;BME280;15455;53.376;-6.262;2024-03-06T11:27:01;101458.81;;;9.74;100.00
28167;BME280;15455;53.376;-6.262;2024-03-06T11:30:03;101457.94;;;9.71;100.00
28167;BME280;15455;53.376;-6.262;2024-03-06T11:33:00;101459.63;;;9.70;100.00
28167;BME280;15455;53.376;-6.262;2024-03-06T11:36:18;101458.75;;;9.67;100.00
28167;BME280;15455;53.376;-6.262;2024-03-06T11:39:05;101451.69;;;9.60;100.00
28167;BME280;15455;53.376;-6.262;2024-03-06T11:41:54;101456.13;;;9.67;100.00
28167;BME280;15455;53.376;-6.262;2024-03-06T11:44:53;101462.34;;;9.78;100.00
28167;BME280;15455;53.376;-6.262;2024-03-06T11:47:59;101454.63;;;9.86;100.00
28167;BME280;15455;53.376;-6.262;2024-03-06T11:50:46;101459.97;;;9.97;100.00
28167;BME280;15455;53.376;-6.262;2024-03-06T11:53:35;101460.91;;;10.03;100.00
28167;BME280;15455;53.376;-6.262;2024-03-06T11:56:21;101473.94;;;10.02;100.00
28167;BME280;15455;53.376;-6.262;2024-03-06T11:59:07;101468.69;;;9.99;100.00
28167;BME280;15455;53.376;-6.262;2024-03-06T12:02:00;101470.41;;;9.97;100.00
28167;BME280;15455;53.376;-6.262;2024-03-06T12:04:53;101467.72;;;9.94;100.00
28167;BME280;15455;53.376;-6.262;2024-03-06T12:07:49;101466.84;;;9.90;100.00
28167;BME280;15455;53.376;-6.262;2024-03-06T12:10:38;101469.44;;;9.88;100.00
28167;BME280;15455;53.376;-6.262;2024-03-06T12:13:27;101470.34;;;9.94;100.00
28167;BME280;15455;53.376;-6.262;2024-03-06T12:16:12;101463.47;;;10.00;100.00
28167;BME280;15455;53.376;-6.262;2024-03-06T12:18:59;101459.09;;;9.99;100.00
28167;BME280;15455;53.376;-6.262;2024-03-06T12:21:47;101451.28;;;9.98;100.00
28167;BME280;15455;53.376;-6.262;2024-03-06T12:24:33;101453.94;;;10.02;100.00
28167;BME280;15455;53.376;-6.262;2024-03-06T12:27:22;101453.94;;;10.02;100.00
28167;BME280;15455;53.376;-6.262;2024-03-06T12:30:09;101450.38;;;9.93;100.00
28167;BME280;15455;53.376;-6.262;2024-03-06T12:32:59;101466.09;;;10.00;100.00
28167;BME280;15455;53.376;-6.262;2024-03-06T12:35:45;101462.75;;;10.15;100.00
28167;BME280;15455;53.376;-6.262;2024-03-06T12:38:32;101467.94;;;10.12;100.00
28167;BME280;15455;53.376;-6.262;2024-03-06T12:41:18;101460.94;;;10.06;100.00
28167;BME280;15455;53.376;-6.262;2024-03-06T12:44:07;101461.03;;;10.13;100.00
28167;BME280;15455;53.376;-6.262;2024-03-06T12:46:53;101469.81;;;10.24;100.00
28167;BME280;15455;53.376;-6.262;2024-03-06T12:49:38;101467.31;;;10.33;100.00
28167;BME280;15455;53.376;-6.262;2024-03-06T12:52:24;101476.97;;;10.39;100.00
28167;BME280;15455;53.376;-6.262;2024-03-06T12:55:09;101469.06;;;10.33;100.00
28167;BME280;15455;53.376;-6.262;2024-03-06T12:57:55;101473.38;;;10.31;100.00
28167;BME280;15455;53.376;-6.262;2024-03-06T13:00:41;101473.44;;;10.34;100.00
28167;BME280;15455;53.376;-6.262;2024-03-06T13:03:27;101469.13;;;10.36;100.00
28167;BME280;15455;53.376;-6.262;2024-03-06T13:06:12;101475.25;;;10.44;100.00
28167;BME280;15455;53.376;-6.262;2024-03-06T13:08:59;101470.13;;;10.49;100.00
28167;BME280;15455;53.376;-6.262;2024-03-06T13:11:44;101461.38;;;10.47;100.00
28167;BME280;15455;53.376;-6.262;2024-03-06T13:14:30;101461.38;;;10.47;100.00
28167;BME280;15455;53.376;-6.262;2024-03-06T13:17:15;101471.78;;;10.40;100.00
28167;BME280;15455;53.376;-6.262;2024-03-06T13:20:01;101473.34;;;10.28;100.00
28167;BME280;15455;53.376;-6.262;2024-03-06T13:22:47;101469.75;;;10.18;100.00
28167;BME280;15455;53.376;-6.262;2024-03-06T13:25:33;101467.91;;;10.09;100.00
28167;BME280;15455;53.376;-6.262;2024-03-06T13:28:19;101466.06;;;9.97;100.00
28167;BME280;15455;53.376;-6.262;2024-03-06T13:31:06;101454.66;;;9.89;100.00
28167;BME280;15455;53.376;-6.262;2024-03-06T13:33:52;101462.41;;;9.83;100.00
28167;BME280;15455;53.376;-6.262;2024-03-06T13:36:39;101457.16;;;9.80;100.00
28167;BME280;15455;53.376;-6.262;2024-03-06T13:39:24;101462.41;;;9.83;100.00
28167;BME280;15455;53.376;-6.262;2024-03-06T13:42:10;101455.53;;;9.89;100.00
28167;BME280;15455;53.376;-6.262;2024-03-06T13:44:56;101455.53;;;9.88;100.00
28167;BME280;15455;53.376;-6.262;2024-03-06T13:47:42;101453.75;;;9.84;100.00
28167;BME280;15455;53.376;-6.262;2024-03-06T13:50:28;101447.59;;;9.79;100.00
28167;BME280;15455;53.376;-6.262;2024-03-06T13:53:14;101451.78;;;9.67;100.00
28167;BME280;15455;53.376;-6.262;2024-03-06T13:56:00;101454.34;;;9.64;100.00
28167;BME280;15455;53.376;-6.262;2024-03-06T13:58:46;101450.94;;;9.70;100.00
28167;BME280;15455;53.376;-6.262;2024-03-06T14:01:32;101456.34;;;9.82;100.00
28167;BME280;15455;53.376;-6.262;2024-03-06T14:04:17;101463.38;;;9.89;100.00
28167;BME280;15455;53.376;-6.262;2024-03-06T14:07:04;101465.00;;;9.83;100.00
28167;BME280;15455;53.376;-6.262;2024-03-06T14:09:50;101462.31;;;9.73;100.00
28167;BME280;15455;53.376;-6.262;2024-03-06T14:12:37;101471.81;;;9.71;100.00
28167;BME280;15455;53.376;-6.262;2024-03-06T14:15:23;101467.44;;;9.69;100.00
28167;BME280;15455;53.376;-6.262;2024-03-06T14:18:09;101461.25;;;9.59;100.00
28167;BME280;15455;53.376;-6.262;2024-03-06T14:20:54;101462.97;;;9.59;100.00
28167;BME280;15455;53.376;-6.262;2024-03-06T14:23:41;101463.00;;;9.62;100.00
28167;BME280;15455;53.376;-6.262;2024-03-06T14:26:27;101456.84;;;9.55;100.00
28167;BME280;15455;53.376;-6.262;2024-03-06T14:29:14;101456.69;;;9.43;100.00
28167;BME280;15455;53.376;-6.262;2024-03-06T14:31:59;101459.28;;;9.43;100.00